createdAt,value
2019-02-23T00:00:27.905Z,0.00
2019-02-23T00:01:27.890Z,0.00
2019-02-23T00:02:27.892Z,0.00
2019-02-23T00:03:27.874Z,0.00
2019-02-23T00:04:28.278Z,0.00
2019-02-23T00:05:27.853Z,0.00
2019-02-23T00:06:30.139Z,0.00
2019-02-23T00:07:27.832Z,0.00
2019-02-23T00:08:27.825Z,0.00
2019-02-23T00:09:28.258Z,0.00
2019-02-23T00:10:27.806Z,0.00
2019-02-23T00:11:27.784Z,0.00
2019-02-23T00:12:27.772Z,0.00
2019-02-23T00:13:27.778Z,0.00
2019-02-23T00:14:27.777Z,0.00
2019-02-23T00:15:28.260Z,0.00
2019-02-23T00:16:27.751Z,0.00
2019-02-23T00:17:27.722Z,0.00
2019-02-23T00:18:27.708Z,0.00
2019-02-23T00:19:27.719Z,0.00
2019-02-23T00:20:27.697Z,0.00
2019-02-23T00:21:27.695Z,0.00
2019-02-23T00:22:27.671Z,0.00
2019-02-23T00:23:27.662Z,0.00
2019-02-23T00:24:27.647Z,0.00
2019-02-23T00:25:27.645Z,0.00
2019-02-23T00:26:27.634Z,0.00
2019-02-23T00:27:27.618Z,0.00
2019-02-23T00:28:27.654Z,0.00
2019-02-23T00:29:27.609Z,0.00
2019-02-23T00:30:27.770Z,0.00
2019-02-23T00:31:27.592Z,0.00
2019-02-23T00:32:27.558Z,0.00
2019-02-23T00:33:27.553Z,0.00
2019-02-23T00:34:27.537Z,0.00
2019-02-23T00:35:27.757Z,0.00
2019-02-23T00:36:27.515Z,0.00
2019-02-23T00:37:27.520Z,0.00
2019-02-23T00:38:27.493Z,0.00
2019-02-23T00:39:27.752Z,0.00
2019-02-23T00:40:27.469Z,0.00
2019-02-23T00:41:27.467Z,0.00
2019-02-23T00:42:27.453Z,0.00
2019-02-23T00:43:27.451Z,0.00
2019-02-23T00:44:27.463Z,0.00
2019-02-23T00:45:27.417Z,0.00
2019-02-23T00:46:27.411Z,0.00
2019-02-23T00:47:27.759Z,0.00
2019-02-23T00:48:27.387Z,0.00
2019-02-23T00:49:35.924Z,0.00
2019-02-23T00:50:28.378Z,0.00
2019-02-23T00:51:27.764Z,0.00
2019-02-23T00:52:27.353Z,0.00
2019-02-23T00:53:27.342Z,0.00
2019-02-23T00:54:27.335Z,0.00
2019-02-23T00:55:27.362Z,0.00
2019-02-23T00:56:27.747Z,0.00
2019-02-23T00:57:27.288Z,0.00
2019-02-23T00:58:27.284Z,0.00
2019-02-23T00:59:27.270Z,0.00
2019-02-23T01:00:27.257Z,0.00
2019-02-23T01:01:27.782Z,0.00
2019-02-23T01:02:27.260Z,0.00
2019-02-23T01:03:27.225Z,0.00
2019-02-23T01:04:27.210Z,0.00
2019-02-23T01:05:27.208Z,0.00
2019-02-23T01:06:27.198Z,0.00
2019-02-23T01:07:27.768Z,0.00
2019-02-23T01:08:27.170Z,0.00
2019-02-23T01:09:27.165Z,0.00
2019-02-23T01:10:27.158Z,0.00
2019-02-23T01:11:27.139Z,0.00
2019-02-23T01:12:27.136Z,0.00
2019-02-23T01:13:27.139Z,0.00
2019-02-23T01:14:27.105Z,0.00
2019-02-23T01:15:27.094Z,0.00
2019-02-23T01:16:27.089Z,0.00
2019-02-23T01:17:27.275Z,0.00
2019-02-23T01:18:27.077Z,0.00
2019-02-23T01:19:27.051Z,0.00
2019-02-23T01:20:27.040Z,0.00
2019-02-23T01:21:27.039Z,0.00
2019-02-23T01:22:27.030Z,0.00
2019-02-23T01:23:27.019Z,0.00
2019-02-23T01:24:27.046Z,0.00
2019-02-23T01:25:26.987Z,0.00
2019-02-23T01:26:26.977Z,0.00
2019-02-23T01:27:26.971Z,0.00
2019-02-23T01:28:27.263Z,0.00
2019-02-23T01:29:26.956Z,0.00
2019-02-23T01:30:26.956Z,0.00
2019-02-23T01:31:26.954Z,0.00
2019-02-23T01:32:26.977Z,0.00
2019-02-23T01:33:27.256Z,0.00
2019-02-23T01:34:26.898Z,0.00
2019-02-23T01:35:26.880Z,0.00
2019-02-23T01:36:26.895Z,0.00
2019-02-23T01:37:26.941Z,0.00
2019-02-23T01:38:26.860Z,0.00
2019-02-23T01:39:26.858Z,0.00
2019-02-23T01:40:26.828Z,0.00
2019-02-23T01:41:26.817Z,0.00
2019-02-23T01:42:26.804Z,0.00
2019-02-23T01:43:26.792Z,0.00
2019-02-23T01:44:26.789Z,0.00
2019-02-23T01:45:26.795Z,0.00
2019-02-23T01:46:27.764Z,0.00
2019-02-23T01:47:26.752Z,0.00
2019-02-23T01:48:26.740Z,0.00
2019-02-23T01:49:26.730Z,0.00
2019-02-23T01:50:26.743Z,0.00
2019-02-23T01:51:26.773Z,0.00
2019-02-23T01:52:26.716Z,0.00
2019-02-23T01:53:26.696Z,0.00
2019-02-23T01:54:26.689Z,0.00
2019-02-23T01:55:26.689Z,0.00
2019-02-23T01:56:26.653Z,0.00
2019-02-23T01:57:26.654Z,0.00
2019-02-23T01:58:26.638Z,0.00
2019-02-23T01:59:26.620Z,0.00
2019-02-23T02:00:26.623Z,0.00
2019-02-23T02:01:26.611Z,0.00
2019-02-23T02:02:26.590Z,0.00
2019-02-23T02:03:26.799Z,0.00
2019-02-23T02:04:26.572Z,0.00
2019-02-23T02:05:26.566Z,0.00
2019-02-23T02:06:26.552Z,0.00
2019-02-23T02:07:26.537Z,0.00
2019-02-23T02:08:26.544Z,0.00
2019-02-23T02:09:26.524Z,0.00
2019-02-23T02:10:26.512Z,0.00
2019-02-23T02:11:26.524Z,0.00
2019-02-23T02:12:26.492Z,0.00
2019-02-23T02:13:26.482Z,0.00
2019-02-23T02:14:26.487Z,0.00
2019-02-23T02:15:26.477Z,0.00
2019-02-23T02:16:26.456Z,0.00
2019-02-23T02:17:26.431Z,0.00
2019-02-23T02:18:26.415Z,0.00
2019-02-23T02:19:26.410Z,0.00
2019-02-23T02:20:26.802Z,0.00
2019-02-23T02:21:26.384Z,0.00
2019-02-23T02:22:26.383Z,0.00
2019-02-23T02:23:26.366Z,0.00
2019-02-23T02:24:26.356Z,0.00
2019-02-23T02:25:26.365Z,0.00
2019-02-23T02:26:26.350Z,0.00
2019-02-23T02:27:26.322Z,0.00
2019-02-23T02:28:26.764Z,0.00
2019-02-23T02:29:26.777Z,0.00
2019-02-23T02:30:26.287Z,0.00
2019-02-23T02:31:26.280Z,0.00
2019-02-23T02:32:26.291Z,0.00
2019-02-23T02:33:26.275Z,0.00
2019-02-23T02:34:26.247Z,0.00
2019-02-23T02:35:26.267Z,0.00
2019-02-23T02:36:26.230Z,0.00
2019-02-23T02:37:26.283Z,0.00
2019-02-23T02:38:26.208Z,0.00
2019-02-23T02:39:26.193Z,0.00
2019-02-23T02:40:26.201Z,0.00
2019-02-23T02:41:26.186Z,0.00
2019-02-23T02:42:26.164Z,0.00
2019-02-23T02:43:26.172Z,0.00
2019-02-23T02:44:26.135Z,0.00
2019-02-23T02:45:26.135Z,0.00
2019-02-23T02:46:26.115Z,0.00
2019-02-23T02:47:26.112Z,0.00
2019-02-23T02:48:26.104Z,0.00
2019-02-23T02:49:26.280Z,0.00
2019-02-23T02:50:26.070Z,0.00
2019-02-23T02:51:26.074Z,0.00
2019-02-23T02:52:26.267Z,0.00
2019-02-23T02:53:26.039Z,0.00
2019-02-23T02:54:26.034Z,0.00
2019-02-23T02:55:26.290Z,0.00
2019-02-23T02:56:26.033Z,0.00
2019-02-23T02:57:25.998Z,0.00
2019-02-23T02:58:26.008Z,0.00
2019-02-23T02:59:25.976Z,0.00
2019-02-23T03:00:25.985Z,0.00
2019-02-23T03:01:25.956Z,0.00
2019-02-23T03:02:25.953Z,0.00
2019-02-23T03:03:25.970Z,0.00
2019-02-23T03:04:25.936Z,0.00
2019-02-23T03:05:25.919Z,0.00
2019-02-23T03:06:25.931Z,0.00
2019-02-23T03:07:25.897Z,0.00
2019-02-23T03:08:25.913Z,0.00
2019-02-23T03:09:26.768Z,0.00
2019-02-23T03:10:25.868Z,0.00
2019-02-23T03:11:25.871Z,0.00
2019-02-23T03:12:25.852Z,0.00
2019-02-23T03:13:25.876Z,0.00
2019-02-23T03:14:25.819Z,0.00
2019-02-23T03:15:25.815Z,0.00
2019-02-23T03:16:25.797Z,0.00
2019-02-23T03:17:25.797Z,0.00
2019-02-23T03:18:25.796Z,0.00
2019-02-23T03:19:25.767Z,0.00
2019-02-23T03:20:36.173Z,0.00
2019-02-23T03:21:26.744Z,0.00
2019-02-23T03:22:25.730Z,0.00
2019-02-23T03:23:26.760Z,0.00
2019-02-23T03:24:25.726Z,0.00
2019-02-23T03:25:25.709Z,0.00
2019-02-23T03:26:25.785Z,0.00
2019-02-23T03:27:25.674Z,0.00
2019-02-23T03:28:25.662Z,0.00
2019-02-23T03:29:25.657Z,0.00
2019-02-23T03:30:25.643Z,0.00
2019-02-23T03:31:25.800Z,0.00
2019-02-23T03:32:25.620Z,0.00
2019-02-23T03:33:25.610Z,0.00
2019-02-23T03:34:25.602Z,0.00
2019-02-23T03:35:25.608Z,0.00
2019-02-23T03:36:25.793Z,0.00
2019-02-23T03:37:25.574Z,0.00
2019-02-23T03:38:25.567Z,0.00
2019-02-23T03:39:25.561Z,0.00
2019-02-23T03:40:25.550Z,0.00
2019-02-23T03:41:25.782Z,0.00
2019-02-23T03:42:25.515Z,0.00
2019-02-23T03:43:25.515Z,0.00
2019-02-23T03:44:25.502Z,0.00
2019-02-23T03:45:25.493Z,0.00
2019-02-23T03:46:25.479Z,0.00
2019-02-23T03:47:25.783Z,0.00
2019-02-23T03:48:25.817Z,0.00
2019-02-23T03:49:25.437Z,0.00
2019-02-23T03:50:25.423Z,0.00
2019-02-23T03:51:25.421Z,0.00
2019-02-23T03:52:25.409Z,0.00
2019-02-23T03:53:25.403Z,0.00
2019-02-23T03:54:25.391Z,0.00
2019-02-23T03:55:25.371Z,0.00
2019-02-23T03:56:25.372Z,0.00
2019-02-23T03:57:25.353Z,0.00
2019-02-23T03:58:25.339Z,0.00
2019-02-23T03:59:25.342Z,0.00
2019-02-23T04:00:25.395Z,0.00
2019-02-23T04:01:25.307Z,0.00
2019-02-23T04:02:25.307Z,0.00
2019-02-23T04:03:25.289Z,0.00
2019-02-23T04:04:25.278Z,0.00
2019-02-23T04:05:25.267Z,0.00
2019-02-23T04:06:25.254Z,0.00
2019-02-23T04:07:25.254Z,0.00
2019-02-23T04:08:25.236Z,0.00
2019-02-23T04:09:25.300Z,0.00
2019-02-23T04:10:25.224Z,0.00
2019-02-23T04:11:25.209Z,0.00
2019-02-23T04:12:25.196Z,0.00
2019-02-23T04:13:25.215Z,0.00
2019-02-23T04:14:25.198Z,0.00
2019-02-23T04:15:25.169Z,0.00
2019-02-23T04:16:25.162Z,0.00
2019-02-23T04:17:25.139Z,0.00
2019-02-23T04:18:25.138Z,0.00
2019-02-23T04:19:25.300Z,0.00
2019-02-23T04:20:25.118Z,0.00
2019-02-23T04:21:25.109Z,0.00
2019-02-23T04:22:25.091Z,0.00
2019-02-23T04:23:25.078Z,0.00
2019-02-23T04:24:25.073Z,0.00
2019-02-23T04:25:25.051Z,0.00
2019-02-23T04:26:25.041Z,0.00
2019-02-23T04:27:25.071Z,0.00
2019-02-23T04:28:25.313Z,0.00
2019-02-23T04:29:25.020Z,0.00
2019-02-23T04:30:25.028Z,0.00
2019-02-23T04:31:24.998Z,0.00
2019-02-23T04:32:24.988Z,0.00
2019-02-23T04:33:25.003Z,0.00
2019-02-23T04:34:24.967Z,0.00
2019-02-23T04:35:24.966Z,0.00
2019-02-23T04:36:24.946Z,0.00
2019-02-23T04:37:24.934Z,0.00
2019-02-23T04:38:25.308Z,0.00
2019-02-23T04:39:24.905Z,0.00
2019-02-23T04:40:25.299Z,0.00
2019-02-23T04:41:24.889Z,0.00
2019-02-23T04:42:24.870Z,0.00
2019-02-23T04:43:24.882Z,0.00
2019-02-23T04:44:24.933Z,0.00
2019-02-23T04:45:24.850Z,0.00
2019-02-23T04:46:24.871Z,0.00
2019-02-23T04:47:24.817Z,0.00
2019-02-23T04:48:24.810Z,0.00
2019-02-23T04:49:26.027Z,0.00
2019-02-23T04:50:24.795Z,0.00
2019-02-23T04:51:24.787Z,0.00
2019-02-23T04:52:24.787Z,0.00
2019-02-23T04:53:24.750Z,0.00
2019-02-23T04:54:24.751Z,0.00
2019-02-23T04:55:24.746Z,0.00
2019-02-23T04:56:24.738Z,0.00
2019-02-23T04:57:24.716Z,0.00
2019-02-23T04:58:24.736Z,0.00
2019-02-23T04:59:24.700Z,0.00
2019-02-23T05:00:24.690Z,0.00
2019-02-23T05:01:24.675Z,0.00
2019-02-23T05:02:24.686Z,0.00
2019-02-23T05:03:24.667Z,0.00
2019-02-23T05:04:24.680Z,0.00
2019-02-23T05:05:24.651Z,0.00
2019-02-23T05:06:24.625Z,0.00
2019-02-23T05:07:24.617Z,0.00
2019-02-23T05:08:24.607Z,0.00
2019-02-23T05:09:24.588Z,0.00
2019-02-23T05:10:24.582Z,0.00
2019-02-23T05:11:24.563Z,0.00
2019-02-23T05:12:24.553Z,0.00
2019-02-23T05:13:24.556Z,0.00
2019-02-23T05:14:24.555Z,0.00
2019-02-23T05:15:24.517Z,0.00
2019-02-23T05:16:24.510Z,0.00
2019-02-23T05:17:24.518Z,0.00
2019-02-23T05:18:24.496Z,0.00
2019-02-23T05:19:24.482Z,0.00
2019-02-23T05:20:24.856Z,0.00
2019-02-23T05:21:26.779Z,0.00
2019-02-23T05:22:24.454Z,0.00
2019-02-23T05:23:24.823Z,0.00
2019-02-23T05:24:24.423Z,0.00
2019-02-23T05:25:24.498Z,0.00
2019-02-23T05:26:24.422Z,0.00
2019-02-23T05:27:24.425Z,0.00
2019-02-23T05:28:24.384Z,0.00
2019-02-23T05:29:24.372Z,0.00
2019-02-23T05:30:24.376Z,0.00
2019-02-23T05:31:24.350Z,0.00
2019-02-23T05:32:24.808Z,0.00
2019-02-23T05:33:24.812Z,0.00
2019-02-23T05:34:24.353Z,0.00
2019-02-23T05:35:24.311Z,0.00
2019-02-23T05:36:24.302Z,0.00
2019-02-23T05:37:24.336Z,0.00
2019-02-23T05:38:24.306Z,0.00
2019-02-23T05:39:24.286Z,0.00
2019-02-23T05:40:24.278Z,0.00
2019-02-23T05:41:24.242Z,0.00
2019-02-23T05:42:24.259Z,0.00
2019-02-23T05:43:24.231Z,0.00
2019-02-23T05:44:24.210Z,0.00
2019-02-23T05:45:24.202Z,0.00
2019-02-23T05:46:24.189Z,0.00
2019-02-23T05:47:24.307Z,0.00
2019-02-23T05:48:24.179Z,0.00
2019-02-23T05:49:24.153Z,0.00
2019-02-23T05:50:24.326Z,0.00
2019-02-23T05:51:24.140Z,0.00
2019-02-23T05:52:24.142Z,0.00
2019-02-23T05:53:24.128Z,0.00
2019-02-23T05:54:24.102Z,0.00
2019-02-23T05:55:24.123Z,0.00
2019-02-23T05:56:24.326Z,0.00
2019-02-23T05:57:24.075Z,0.00
2019-02-23T05:58:24.070Z,0.00
2019-02-23T05:59:24.084Z,0.00
2019-02-23T06:00:24.052Z,0.00
2019-02-23T06:01:24.044Z,0.00
2019-02-23T06:02:24.027Z,0.00
2019-02-23T06:03:24.013Z,0.00
2019-02-23T06:04:24.033Z,0.00
2019-02-23T06:05:23.982Z,0.00
2019-02-23T06:06:23.984Z,0.00
2019-02-23T06:07:23.960Z,0.00
2019-02-23T06:08:23.957Z,0.00
2019-02-23T06:09:23.948Z,0.00
2019-02-23T06:10:23.934Z,0.00
2019-02-23T06:11:23.932Z,0.00
2019-02-23T06:12:24.324Z,0.00
2019-02-23T06:13:23.897Z,0.00
2019-02-23T06:14:23.889Z,0.00
2019-02-23T06:15:23.898Z,0.00
2019-02-23T06:16:23.878Z,0.00
2019-02-23T06:17:23.860Z,0.00
2019-02-23T06:18:23.846Z,0.00
2019-02-23T06:19:23.834Z,0.00
2019-02-23T06:20:23.833Z,0.00
2019-02-23T06:21:23.821Z,0.00
2019-02-23T06:22:23.813Z,0.00
2019-02-23T06:23:23.812Z,0.00
2019-02-23T06:24:23.780Z,0.00
2019-02-23T06:25:23.775Z,0.00
2019-02-23T06:26:23.754Z,0.00
2019-02-23T06:27:23.768Z,0.00
2019-02-23T06:28:23.737Z,0.00
2019-02-23T06:29:23.730Z,0.00
2019-02-23T06:30:23.715Z,4.00
2019-02-23T06:31:23.708Z,4.00
2019-02-23T06:32:23.815Z,4.00
2019-02-23T06:33:23.700Z,4.00
2019-02-23T06:34:23.672Z,4.00
2019-02-23T06:35:23.662Z,0.00
2019-02-23T06:36:23.651Z,0.00
2019-02-23T06:37:23.655Z,4.00
2019-02-23T06:38:23.633Z,4.00
2019-02-23T06:39:23.637Z,0.00
2019-02-23T06:40:23.616Z,4.00
2019-02-23T06:41:23.597Z,4.00
2019-02-23T06:42:23.832Z,4.00
2019-02-23T06:43:23.571Z,4.00
2019-02-23T06:44:23.563Z,4.00
2019-02-23T06:45:23.574Z,8.00
2019-02-23T06:46:23.543Z,4.00
2019-02-23T06:47:23.549Z,8.00
2019-02-23T06:48:23.523Z,4.00
2019-02-23T06:49:23.509Z,8.00
2019-02-23T06:50:23.516Z,8.00
2019-02-23T06:51:23.499Z,8.00
2019-02-23T06:52:23.851Z,8.00
2019-02-23T06:53:23.476Z,12.00
2019-02-23T06:54:23.465Z,8.00
2019-02-23T06:55:23.454Z,8.00
2019-02-23T06:56:23.445Z,12.00
2019-02-23T06:57:23.458Z,8.00
2019-02-23T06:58:23.417Z,12.00
2019-02-23T06:59:23.430Z,12.00
2019-02-23T07:00:23.422Z,12.00
2019-02-23T07:01:23.393Z,16.00
2019-02-23T07:02:23.388Z,12.00
2019-02-23T07:03:23.370Z,12.00
2019-02-23T07:04:23.833Z,16.00
2019-02-23T07:05:23.373Z,16.00
2019-02-23T07:06:23.337Z,16.00
2019-02-23T07:07:23.331Z,16.00
2019-02-23T07:08:23.320Z,20.00
2019-02-23T07:09:23.292Z,16.00
2019-02-23T07:10:23.282Z,20.00
2019-02-23T07:11:23.291Z,16.00
2019-02-23T07:12:23.268Z,20.00
2019-02-23T07:13:23.259Z,20.00
2019-02-23T07:14:23.252Z,20.00
2019-02-23T07:15:23.228Z,20.00
2019-02-23T07:16:23.225Z,24.00
2019-02-23T07:17:23.340Z,24.00
2019-02-23T07:18:23.193Z,24.00
2019-02-23T07:19:23.190Z,28.00
2019-02-23T07:20:23.210Z,28.00
2019-02-23T07:21:23.203Z,24.00
2019-02-23T07:22:23.164Z,24.00
2019-02-23T07:23:23.154Z,28.00
2019-02-23T07:24:23.325Z,24.00
2019-02-23T07:25:23.139Z,24.00
2019-02-23T07:26:23.125Z,28.00
2019-02-23T07:27:23.107Z,28.00
2019-02-23T07:28:23.129Z,28.00
2019-02-23T07:29:23.089Z,28.00
2019-02-23T07:30:23.094Z,32.00
2019-02-23T07:31:23.078Z,32.00
2019-02-23T07:32:23.064Z,32.00
2019-02-23T07:33:32.298Z,36.00
2019-02-23T07:34:24.032Z,32.00
2019-02-23T07:35:23.023Z,32.00
2019-02-23T07:36:23.350Z,32.00
2019-02-23T07:37:22.998Z,36.00
2019-02-23T07:38:23.010Z,36.00
2019-02-23T07:39:22.987Z,40.00
2019-02-23T07:40:22.967Z,40.00
2019-02-23T07:41:23.342Z,40.00
2019-02-23T07:42:22.982Z,36.00
2019-02-23T07:43:22.956Z,36.00
2019-02-23T07:44:22.935Z,36.00
2019-02-23T07:45:22.916Z,36.00
2019-02-23T07:46:22.923Z,36.00
2019-02-23T07:47:22.901Z,36.00
2019-02-23T07:48:22.895Z,40.00
2019-02-23T07:49:22.868Z,40.00
2019-02-23T07:50:22.861Z,40.00
2019-02-23T07:51:22.839Z,40.00
2019-02-23T07:52:26.379Z,40.00
2019-02-23T07:53:22.814Z,40.00
2019-02-23T07:54:22.816Z,40.00
2019-02-23T07:55:22.799Z,40.00
2019-02-23T07:56:22.791Z,40.00
2019-02-23T07:57:22.783Z,44.00
2019-02-23T07:58:22.792Z,44.00
2019-02-23T07:59:22.758Z,48.00
2019-02-23T08:00:22.749Z,48.00
2019-02-23T08:01:22.738Z,52.00
2019-02-23T08:02:22.720Z,56.00
2019-02-23T08:03:22.854Z,52.00
2019-02-23T08:04:22.709Z,52.00
2019-02-23T08:05:22.714Z,52.00
2019-02-23T08:06:22.678Z,52.00
2019-02-23T08:07:22.666Z,56.00
2019-02-23T08:08:22.854Z,56.00
2019-02-23T08:09:22.650Z,52.00
2019-02-23T08:10:22.645Z,52.00
2019-02-23T08:11:22.845Z,56.00
2019-02-23T08:12:22.622Z,60.00
2019-02-23T08:13:22.603Z,60.00
2019-02-23T08:14:22.594Z,56.00
2019-02-23T08:15:22.583Z,60.00
2019-02-23T08:16:22.584Z,60.00
2019-02-23T08:17:22.851Z,60.00
2019-02-23T08:18:23.317Z,60.00
2019-02-23T08:19:22.554Z,60.00
2019-02-23T08:20:22.534Z,60.00
2019-02-23T08:21:22.849Z,60.00
2019-02-23T08:22:22.856Z,64.00
2019-02-23T08:23:22.495Z,68.00
2019-02-23T08:24:22.484Z,68.00
2019-02-23T08:25:22.481Z,72.00
2019-02-23T08:26:22.464Z,72.00
2019-02-23T08:27:22.477Z,84.00
2019-02-23T08:28:22.465Z,88.00
2019-02-23T08:29:22.431Z,84.00
2019-02-23T08:30:22.481Z,88.00
2019-02-23T08:31:22.417Z,88.00
2019-02-23T08:32:22.846Z,84.00
2019-02-23T08:33:22.388Z,76.00
2019-02-23T08:34:22.390Z,68.00
2019-02-23T08:35:22.400Z,72.00
2019-02-23T08:36:23.755Z,68.00
2019-02-23T08:37:22.349Z,80.00
2019-02-23T08:38:22.339Z,80.00
2019-02-23T08:39:22.325Z,80.00
2019-02-23T08:40:22.327Z,80.00
2019-02-23T08:41:22.327Z,84.00
2019-02-23T08:42:22.297Z,88.00
2019-02-23T08:43:22.292Z,88.00
2019-02-23T08:44:22.278Z,88.00
2019-02-23T08:45:22.264Z,84.00
2019-02-23T08:46:22.291Z,88.00
2019-02-23T08:47:22.250Z,88.00
2019-02-23T08:48:22.246Z,84.00
2019-02-23T08:49:22.225Z,84.00
2019-02-23T08:50:22.217Z,84.00
2019-02-23T08:51:22.222Z,80.00
2019-02-23T08:52:22.354Z,76.00
2019-02-23T08:53:22.193Z,76.00
2019-02-23T08:54:22.175Z,80.00
2019-02-23T08:55:22.166Z,80.00
2019-02-23T08:56:22.153Z,80.00
2019-02-23T08:57:22.358Z,76.00
2019-02-23T08:58:22.121Z,72.00
2019-02-23T08:59:22.106Z,72.00
2019-02-23T09:00:22.100Z,76.00
2019-02-23T09:01:22.110Z,76.00
2019-02-23T09:02:22.074Z,72.00
2019-02-23T09:03:22.083Z,76.00
2019-02-23T09:04:22.052Z,80.00
2019-02-23T09:05:22.043Z,80.00
2019-02-23T09:06:22.036Z,80.00
2019-02-23T09:07:22.043Z,80.00
2019-02-23T09:08:22.007Z,80.00
2019-02-23T09:09:22.005Z,80.00
2019-02-23T09:10:21.986Z,76.00
2019-02-23T09:11:21.974Z,76.00
2019-02-23T09:12:21.965Z,80.00
2019-02-23T09:13:22.348Z,80.00
2019-02-23T09:14:21.952Z,76.00
2019-02-23T09:15:22.371Z,84.00
2019-02-23T09:16:21.921Z,76.00
2019-02-23T09:17:21.922Z,76.00
2019-02-23T09:18:22.351Z,76.00
2019-02-23T09:19:21.899Z,76.00
2019-02-23T09:20:29.047Z,76.00
2019-02-23T09:21:23.832Z,76.00
2019-02-23T09:22:21.859Z,76.00
2019-02-23T09:23:22.365Z,76.00
2019-02-23T09:24:21.849Z,80.00
2019-02-23T09:25:21.831Z,76.00
2019-02-23T09:26:21.829Z,76.00
2019-02-23T09:27:21.802Z,76.00
2019-02-23T09:28:21.808Z,76.00
2019-02-23T09:29:21.781Z,76.00
2019-02-23T09:30:21.778Z,76.00
2019-02-23T09:31:21.779Z,72.00
2019-02-23T09:32:21.752Z,76.00
2019-02-23T09:33:21.743Z,72.00
2019-02-23T09:34:21.742Z,72.00
2019-02-23T09:35:21.717Z,72.00
2019-02-23T09:36:21.703Z,72.00
2019-02-23T09:37:21.742Z,72.00
2019-02-23T09:38:21.695Z,72.00
2019-02-23T09:39:21.691Z,68.00
2019-02-23T09:40:21.685Z,68.00
2019-02-23T09:41:21.684Z,68.00
2019-02-23T09:42:21.643Z,68.00
2019-02-23T09:43:21.870Z,64.00
2019-02-23T09:44:21.880Z,64.00
2019-02-23T09:45:21.619Z,64.00
2019-02-23T09:46:21.597Z,64.00
2019-02-23T09:47:21.587Z,64.00
2019-02-23T09:48:21.577Z,64.00
2019-02-23T09:49:21.560Z,64.00
2019-02-23T09:50:21.863Z,64.00
2019-02-23T09:51:21.543Z,68.00
2019-02-23T09:52:21.541Z,64.00
2019-02-23T09:53:21.529Z,64.00
2019-02-23T09:54:21.514Z,64.00
2019-02-23T09:55:21.505Z,64.00
2019-02-23T09:56:21.871Z,68.00
2019-02-23T09:57:21.476Z,64.00
2019-02-23T09:58:21.472Z,64.00
2019-02-23T09:59:21.462Z,64.00
2019-02-23T10:00:21.447Z,68.00
2019-02-23T10:01:21.437Z,68.00
2019-02-23T10:02:21.473Z,64.00
2019-02-23T10:03:21.422Z,68.00
2019-02-23T10:04:21.414Z,68.00
2019-02-23T10:05:21.418Z,68.00
2019-02-23T10:06:21.407Z,64.00
2019-02-23T10:07:21.393Z,68.00
2019-02-23T10:08:21.425Z,64.00
2019-02-23T10:09:21.354Z,64.00
2019-02-23T10:10:21.365Z,64.00
2019-02-23T10:11:21.341Z,64.00
2019-02-23T10:12:21.332Z,64.00
2019-02-23T10:13:21.325Z,68.00
2019-02-23T10:14:21.297Z,68.00
2019-02-23T10:15:21.288Z,68.00
2019-02-23T10:16:21.305Z,72.00
2019-02-23T10:17:21.277Z,72.00
2019-02-23T10:18:21.253Z,72.00
2019-02-23T10:19:21.250Z,68.00
2019-02-23T10:20:21.228Z,68.00
2019-02-23T10:21:21.224Z,72.00
2019-02-23T10:22:21.218Z,72.00
2019-02-23T10:23:22.340Z,68.00
2019-02-23T10:24:21.213Z,68.00
2019-02-23T10:25:21.175Z,68.00
2019-02-23T10:26:21.160Z,64.00
2019-02-23T10:27:21.163Z,64.00
2019-02-23T10:28:21.365Z,64.00
2019-02-23T10:29:21.136Z,64.00
2019-02-23T10:30:21.121Z,64.00
2019-02-23T10:31:21.108Z,64.00
2019-02-23T10:32:21.095Z,64.00
2019-02-23T10:33:21.367Z,68.00
2019-02-23T10:34:21.092Z,64.00
2019-02-23T10:35:21.395Z,64.00
2019-02-23T10:36:21.071Z,64.00
2019-02-23T10:37:21.045Z,64.00
2019-02-23T10:38:21.051Z,60.00
2019-02-23T10:39:21.042Z,60.00
2019-02-23T10:40:21.385Z,60.00
2019-02-23T10:41:21.017Z,60.00
2019-02-23T10:42:20.994Z,60.00
2019-02-23T10:43:21.000Z,60.00
2019-02-23T10:44:20.979Z,64.00
2019-02-23T10:45:20.980Z,64.00
2019-02-23T10:46:20.961Z,60.00
2019-02-23T10:47:20.950Z,60.00
2019-02-23T10:48:20.925Z,60.00
2019-02-23T10:49:20.917Z,60.00
2019-02-23T10:50:21.376Z,60.00
2019-02-23T10:51:20.913Z,60.00
2019-02-23T10:52:20.880Z,60.00
2019-02-23T10:53:20.867Z,60.00
2019-02-23T10:54:20.888Z,60.00
2019-02-23T10:55:20.852Z,60.00
2019-02-23T10:56:20.883Z,64.00
2019-02-23T10:57:20.849Z,60.00
2019-02-23T10:58:20.835Z,64.00
2019-02-23T10:59:20.886Z,64.00
2019-02-23T11:00:20.796Z,60.00
2019-02-23T11:01:20.781Z,64.00
2019-02-23T11:02:20.798Z,64.00
2019-02-23T11:03:20.772Z,64.00
2019-02-23T11:04:20.889Z,64.00
2019-02-23T11:05:20.741Z,64.00
2019-02-23T11:06:20.741Z,68.00
2019-02-23T11:07:20.723Z,64.00
2019-02-23T11:08:20.709Z,68.00
2019-02-23T11:09:20.707Z,68.00
2019-02-23T11:10:20.890Z,68.00
2019-02-23T11:11:20.683Z,64.00
2019-02-23T11:12:20.681Z,68.00
2019-02-23T11:13:20.647Z,68.00
2019-02-23T11:14:20.663Z,64.00
2019-02-23T11:15:20.632Z,68.00
2019-02-23T11:16:20.652Z,68.00
2019-02-23T11:17:20.621Z,68.00
2019-02-23T11:18:20.597Z,64.00
2019-02-23T11:19:20.601Z,64.00
2019-02-23T11:20:20.587Z,64.00
2019-02-23T11:21:20.889Z,64.00
2019-02-23T11:22:20.885Z,64.00
2019-02-23T11:23:20.551Z,64.00
2019-02-23T11:24:21.379Z,64.00
2019-02-23T11:25:20.561Z,64.00
2019-02-23T11:26:20.534Z,64.00
2019-02-23T11:27:20.494Z,64.00
2019-02-23T11:28:20.500Z,60.00
2019-02-23T11:29:20.485Z,60.00
2019-02-23T11:30:20.475Z,56.00
2019-02-23T11:31:20.470Z,60.00
2019-02-23T11:32:20.900Z,60.00
2019-02-23T11:33:20.431Z,56.00
2019-02-23T11:34:20.426Z,52.00
2019-02-23T11:35:20.900Z,56.00
2019-02-23T11:36:20.424Z,56.00
2019-02-23T11:37:20.388Z,56.00
2019-02-23T11:38:20.378Z,52.00
2019-02-23T11:39:20.368Z,56.00
2019-02-23T11:40:20.388Z,52.00
2019-02-23T11:41:20.382Z,52.00
2019-02-23T11:42:20.345Z,52.00
2019-02-23T11:43:20.384Z,52.00
2019-02-23T11:44:20.324Z,52.00
2019-02-23T11:45:20.385Z,48.00
2019-02-23T11:46:20.296Z,48.00
2019-02-23T11:47:20.279Z,48.00
2019-02-23T11:48:20.268Z,48.00
2019-02-23T11:49:20.265Z,48.00
2019-02-23T11:50:20.254Z,48.00
2019-02-23T11:51:20.256Z,48.00
2019-02-23T11:52:20.403Z,48.00
2019-02-23T11:53:20.212Z,44.00
2019-02-23T11:54:20.204Z,44.00
2019-02-23T11:55:20.191Z,44.00
2019-02-23T11:56:20.190Z,44.00
2019-02-23T11:57:20.306Z,48.00
2019-02-23T11:58:20.161Z,44.00
2019-02-23T11:59:20.148Z,44.00
2019-02-23T12:00:20.144Z,48.00
2019-02-23T12:01:20.126Z,44.00
2019-02-23T12:02:20.150Z,44.00
2019-02-23T12:03:20.126Z,44.00
2019-02-23T12:04:20.090Z,44.00
2019-02-23T12:05:20.099Z,40.00
2019-02-23T12:06:20.075Z,40.00
2019-02-23T12:07:20.078Z,44.00
2019-02-23T12:08:20.065Z,44.00
2019-02-23T12:09:20.045Z,44.00
2019-02-23T12:10:20.026Z,44.00
2019-02-23T12:11:20.015Z,44.00
2019-02-23T12:12:20.005Z,44.00
2019-02-23T12:13:20.395Z,44.00
2019-02-23T12:14:19.992Z,40.00
2019-02-23T12:15:19.993Z,40.00
2019-02-23T12:16:19.966Z,44.00
2019-02-23T12:17:19.953Z,40.00
2019-02-23T12:18:19.945Z,44.00
2019-02-23T12:19:19.941Z,40.00
2019-02-23T12:20:19.918Z,40.00
2019-02-23T12:21:19.919Z,44.00
2019-02-23T12:22:19.913Z,44.00
2019-02-23T12:23:19.890Z,44.00
2019-02-23T12:24:19.871Z,44.00
2019-02-23T12:25:19.875Z,44.00
2019-02-23T12:26:19.867Z,44.00
2019-02-23T12:27:19.859Z,44.00
2019-02-23T12:28:19.870Z,48.00
2019-02-23T12:29:19.822Z,44.00
2019-02-23T12:30:19.809Z,44.00
2019-02-23T12:31:19.805Z,44.00
2019-02-23T12:32:19.820Z,48.00
2019-02-23T12:33:19.826Z,48.00
2019-02-23T12:34:19.777Z,48.00
2019-02-23T12:35:19.793Z,52.00
2019-02-23T12:36:19.742Z,56.00
2019-02-23T12:37:19.738Z,52.00
2019-02-23T12:38:19.737Z,56.00
2019-02-23T12:39:19.710Z,56.00
2019-02-23T12:40:19.721Z,56.00
2019-02-23T12:41:19.930Z,60.00
2019-02-23T12:42:19.681Z,56.00
2019-02-23T12:43:19.664Z,60.00
2019-02-23T12:44:19.672Z,60.00
2019-02-23T12:45:19.744Z,60.00
2019-02-23T12:46:19.653Z,56.00
2019-02-23T12:47:19.926Z,56.00
2019-02-23T12:48:19.631Z,56.00
2019-02-23T12:49:19.638Z,60.00
2019-02-23T12:50:19.624Z,56.00
2019-02-23T12:51:19.578Z,56.00
2019-02-23T12:52:19.591Z,56.00
2019-02-23T12:53:19.933Z,56.00
2019-02-23T12:54:19.547Z,56.00
2019-02-23T12:55:19.559Z,56.00
2019-02-23T12:56:19.547Z,52.00
2019-02-23T12:57:19.515Z,52.00
2019-02-23T12:58:19.531Z,52.00
2019-02-23T12:59:19.495Z,48.00
2019-02-23T13:00:19.487Z,48.00
2019-02-23T13:01:19.469Z,44.00
2019-02-23T13:02:19.464Z,44.00
2019-02-23T13:03:19.466Z,44.00
2019-02-23T13:04:19.440Z,44.00
2019-02-23T13:05:19.430Z,44.00
2019-02-23T13:06:19.422Z,44.00